createdAt,value
2022-08-19T00:00:41.543Z,93.80
2022-08-19T00:01:45.312Z,93.70
2022-08-19T00:02:55.752Z,93.70
2022-08-19T00:04:03.903Z,93.60
2022-08-19T00:05:06.489Z,93.50
2022-08-19T00:06:08.373Z,93.60
2022-08-19T00:07:10.195Z,93.60
2022-08-19T00:08:12.240Z,93.80
2022-08-19T00:09:16.965Z,93.80
2022-08-19T00:10:20.215Z,93.70
2022-08-19T00:11:25.289Z,93.70
2022-08-19T00:12:28.392Z,93.60
2022-08-19T00:13:30.456Z,93.60
2022-08-19T00:14:32.923Z,93.60
2022-08-19T00:15:35.103Z,93.50
2022-08-19T00:16:42.211Z,93.50
2022-08-19T00:17:45.293Z,93.50
2022-08-19T00:18:48.727Z,93.60
2022-08-19T00:19:50.602Z,93.60
2022-08-19T00:20:52.918Z,93.60
2022-08-19T00:21:56.419Z,93.60
2022-08-19T00:22:58.683Z,93.60
2022-08-19T00:24:01.404Z,93.50
2022-08-19T00:25:03.746Z,93.50
2022-08-19T00:26:06.625Z,93.50
2022-08-19T00:27:25.810Z,93.40
2022-08-19T00:28:28.552Z,93.40
2022-08-19T00:29:30.358Z,93.40
2022-08-19T00:30:32.273Z,93.40
2022-08-19T00:31:34.405Z,93.30
2022-08-19T00:32:36.339Z,93.40
2022-08-19T00:33:38.266Z,93.40
2022-08-19T00:34:40.283Z,93.40
2022-08-19T00:35:42.229Z,93.40
2022-08-19T00:36:44.277Z,93.20
2022-08-19T00:37:46.256Z,93.20
2022-08-19T00:38:48.323Z,93.30
2022-08-19T00:39:52.372Z,93.30
2022-08-19T00:40:54.396Z,93.20
2022-08-19T00:41:56.371Z,93.20
2022-08-19T00:42:58.273Z,93.20
2022-08-19T00:44:22.685Z,93.20
2022-08-19T00:45:32.652Z,93.20
2022-08-19T00:46:41.648Z,93.20
2022-08-19T00:47:44.109Z,93.10
2022-08-19T00:48:45.913Z,93.20
2022-08-19T00:49:55.092Z,93.20
2022-08-19T00:50:57.773Z,93.50
2022-08-19T00:52:29.875Z,93.50
2022-08-19T00:53:35.050Z,93.60
2022-08-19T00:54:38.435Z,93.70
2022-08-19T00:55:40.822Z,93.70
2022-08-19T00:56:43.745Z,93.70
2022-08-19T00:57:55.840Z,93.70
2022-08-19T00:58:59.327Z,93.60
2022-08-19T01:00:03.626Z,93.60
2022-08-19T01:01:06.637Z,93.70
2022-08-19T01:02:09.058Z,93.60
2022-08-19T01:03:19.157Z,93.60
2022-08-19T01:04:21.170Z,93.60
2022-08-19T01:05:28.511Z,93.50
2022-08-19T01:06:33.493Z,93.50
2022-08-19T01:07:39.094Z,93.50
2022-08-19T01:08:41.227Z,93.40
2022-08-19T01:09:43.238Z,93.40
2022-08-19T01:10:49.978Z,93.40
2022-08-19T01:11:52.979Z,93.40
2022-08-19T01:12:56.811Z,93.30
2022-08-19T01:13:59.572Z,93.40
2022-08-19T01:15:01.689Z,93.50
2022-08-19T01:16:09.909Z,93.40
2022-08-19T01:17:12.855Z,93.30
2022-08-19T01:18:17.716Z,93.30
2022-08-19T01:19:44.292Z,93.30
2022-08-19T01:20:47.057Z,93.40
2022-08-19T01:21:58.843Z,93.40
2022-08-19T01:23:06.080Z,93.40
2022-08-19T01:24:08.072Z,93.40
2022-08-19T01:25:15.088Z,93.40
2022-08-19T01:26:20.711Z,93.40
2022-08-19T01:27:22.487Z,93.50
2022-08-19T01:28:39.644Z,93.50
2022-08-19T01:29:44.220Z,93.50
2022-08-19T01:30:50.935Z,93.50
2022-08-19T01:31:54.507Z,93.60
2022-08-19T01:32:57.138Z,93.50
2022-08-19T01:33:59.504Z,93.60
2022-08-19T01:35:03.516Z,93.60
2022-08-19T01:36:11.895Z,93.60
2022-08-19T01:37:15.511Z,93.70
2022-08-19T01:38:28.110Z,93.70
2022-08-19T01:39:30.020Z,93.80
2022-08-19T01:40:34.150Z,93.80
2022-08-19T01:41:37.357Z,93.90
2022-08-19T01:42:39.658Z,94.00
2022-08-19T01:44:13.981Z,94.10
2022-08-19T01:45:05.213Z,94.20
2022-08-19T01:46:07.445Z,94.10
2022-08-19T01:47:10.605Z,94.10
2022-08-19T01:48:13.101Z,94.30
2022-08-19T01:49:16.543Z,94.20
2022-08-19T01:50:18.409Z,94.20
2022-08-19T01:51:20.341Z,94.20
2022-08-19T01:52:22.297Z,94.20
2022-08-19T01:53:24.538Z,94.20
2022-08-19T01:54:32.992Z,94.20
2022-08-19T01:55:41.066Z,94.10
2022-08-19T01:56:43.475Z,94.10
2022-08-19T01:57:49.797Z,94.10
2022-08-19T01:58:57.611Z,94.10
2022-08-19T02:00:00.486Z,94.10
2022-08-19T02:01:02.869Z,94.10
2022-08-19T02:02:09.445Z,94.10
2022-08-19T02:03:12.380Z,94.10
2022-08-19T02:04:15.518Z,94.10
2022-08-19T02:05:19.036Z,94.10
2022-08-19T02:06:21.717Z,94.10
2022-08-19T02:07:30.384Z,94.10
2022-08-19T02:08:35.940Z,94.00
2022-08-19T02:09:37.732Z,94.00
2022-08-19T02:10:42.929Z,94.00
2022-08-19T02:11:45.235Z,93.90
2022-08-19T02:12:47.767Z,93.80
2022-08-19T02:13:50.638Z,93.80
2022-08-19T02:14:52.465Z,93.70
2022-08-19T02:15:54.423Z,93.60
2022-08-19T02:16:56.241Z,93.70
2022-08-19T02:17:58.055Z,93.70
2022-08-19T02:19:02.779Z,93.70
2022-08-19T02:20:05.414Z,93.70
2022-08-19T02:21:07.400Z,93.80
2022-08-19T02:22:09.243Z,93.70
2022-08-19T02:23:13.869Z,93.80
2022-08-19T02:24:17.985Z,93.80
2022-08-19T02:25:19.827Z,93.80
2022-08-19T02:26:21.878Z,93.80
2022-08-19T02:27:24.119Z,93.70
2022-08-19T02:28:26.124Z,93.50
2022-08-19T02:29:28.129Z,93.50
2022-08-19T02:30:31.575Z,93.30
2022-08-19T02:31:34.199Z,93.40
2022-08-19T02:32:36.164Z,93.50
2022-08-19T02:33:47.904Z,93.60
2022-08-19T02:34:50.252Z,93.70
2022-08-19T02:35:52.043Z,93.90
2022-08-19T02:36:53.874Z,94.00
2022-08-19T02:38:14.195Z,94.10
2022-08-19T02:39:16.493Z,94.00
2022-08-19T02:40:18.880Z,94.00
2022-08-19T02:41:27.869Z,93.90
2022-08-19T02:42:29.990Z,93.80
2022-08-19T02:43:36.812Z,93.90
2022-08-19T02:44:39.355Z,94.00
2022-08-19T02:45:41.561Z,94.10
2022-08-19T02:46:45.760Z,94.20
2022-08-19T02:47:47.757Z,94.10
2022-08-19T02:48:50.914Z,94.20
2022-08-19T02:49:52.671Z,94.20
2022-08-19T02:50:57.687Z,94.10
2022-08-19T02:51:59.465Z,94.10
2022-08-19T02:53:01.815Z,94.10
2022-08-19T02:54:05.076Z,94.10
2022-08-19T02:55:08.067Z,94.10
2022-08-19T02:56:10.099Z,93.90
2022-08-19T02:57:12.124Z,93.80
2022-08-19T02:58:15.327Z,93.70
2022-08-19T02:59:17.295Z,93.90
2022-08-19T03:00:19.234Z,94.00
2022-08-19T03:01:42.066Z,94.10
2022-08-19T03:02:44.039Z,94.20
2022-08-19T03:03:45.880Z,94.20
2022-08-19T03:04:47.924Z,94.20
2022-08-19T03:05:56.606Z,94.10
2022-08-19T03:07:07.139Z,94.00
2022-08-19T03:08:14.297Z,94.00
2022-08-19T03:09:17.360Z,94.00
2022-08-19T03:10:19.485Z,94.00
2022-08-19T03:11:27.332Z,94.00
2022-08-19T03:12:29.196Z,94.00
2022-08-19T03:13:31.286Z,94.00
2022-08-19T03:14:34.244Z,94.10
2022-08-19T03:15:39.504Z,94.10
2022-08-19T03:16:48.596Z,94.20
2022-08-19T03:17:50.575Z,94.30
2022-08-19T03:18:53.979Z,94.50
2022-08-19T03:19:57.267Z,94.60
2022-08-19T03:20:59.075Z,94.60
2022-08-19T03:22:01.503Z,94.60
2022-08-19T03:23:03.331Z,94.90
2022-08-19T03:24:07.954Z,94.50
2022-08-19T03:25:10.163Z,94.50
2022-08-19T03:26:15.872Z,94.40
2022-08-19T03:27:18.541Z,94.40
2022-08-19T03:28:22.096Z,94.30
2022-08-19T03:29:30.740Z,94.30
2022-08-19T03:30:33.738Z,94.30
2022-08-19T03:31:45.589Z,94.30
2022-08-19T03:32:56.949Z,94.40
2022-08-19T03:33:59.390Z,94.50
2022-08-19T03:35:01.294Z,95.10
2022-08-19T03:36:04.908Z,94.70
2022-08-19T03:37:15.524Z,94.70
2022-08-19T03:38:17.368Z,95.20
2022-08-19T03:39:19.346Z,94.80
2022-08-19T03:40:21.284Z,94.60
2022-08-19T03:41:26.978Z,94.50
2022-08-19T03:42:49.016Z,94.40
2022-08-19T03:44:01.568Z,94.30
2022-08-19T03:45:03.846Z,94.30
2022-08-19T03:46:09.516Z,94.30
2022-08-19T03:47:17.378Z,94.80
2022-08-19T03:48:19.389Z,94.30
2022-08-19T03:49:27.093Z,94.20
2022-08-19T03:50:30.732Z,94.30
2022-08-19T03:51:35.922Z,94.30
2022-08-19T03:52:38.247Z,94.50
2022-08-19T03:53:40.127Z,94.50
2022-08-19T03:54:42.231Z,94.50
2022-08-19T03:55:44.392Z,94.50
2022-08-19T03:56:48.607Z,94.70
2022-08-19T03:57:50.433Z,94.80
2022-08-19T03:58:53.600Z,94.60
2022-08-19T03:59:55.667Z,94.50
2022-08-19T04:01:21.098Z,94.50
2022-08-19T04:02:36.644Z,94.60
2022-08-19T04:03:39.265Z,94.60
2022-08-19T04:04:44.154Z,94.60
2022-08-19T04:05:47.747Z,94.70
2022-08-19T04:06:50.243Z,94.60
2022-08-19T04:07:52.510Z,94.60
2022-08-19T04:08:56.250Z,94.70
2022-08-19T04:09:58.370Z,94.80
2022-08-19T04:11:00.140Z,94.90
2022-08-19T04:12:02.187Z,94.90
2022-08-19T04:13:07.174Z,94.80
2022-08-19T04:14:13.723Z,94.70
2022-08-19T04:15:16.449Z,94.60
2022-08-19T04:16:20.768Z,94.70
2022-08-19T04:17:23.282Z,94.80
2022-08-19T04:18:25.231Z,94.80
2022-08-19T04:19:28.213Z,94.90
2022-08-19T04:20:30.141Z,94.80
2022-08-19T04:21:32.424Z,94.90
2022-08-19T04:22:34.274Z,94.90
2022-08-19T04:23:37.232Z,94.80
2022-08-19T04:24:46.575Z,94.70
2022-08-19T04:25:48.465Z,94.70
2022-08-19T04:26:51.432Z,94.80
2022-08-19T04:27:53.242Z,94.70
2022-08-19T04:28:56.381Z,94.70
2022-08-19T04:29:58.371Z,94.60
2022-08-19T04:31:00.423Z,94.60
2022-08-19T04:32:08.631Z,94.50
2022-08-19T04:33:14.202Z,94.50
2022-08-19T04:34:18.590Z,94.40
2022-08-19T04:35:24.914Z,94.40
2022-08-19T04:36:29.751Z,94.50
2022-08-19T04:37:35.114Z,94.50
2022-08-19T04:38:37.714Z,94.50
2022-08-19T04:39:58.987Z,94.50
2022-08-19T04:41:23.307Z,94.40
2022-08-19T04:42:40.040Z,94.30
2022-08-19T04:43:41.887Z,94.30
2022-08-19T04:44:46.050Z,94.30
2022-08-19T04:45:48.578Z,94.30
2022-08-19T04:46:52.239Z,94.40
2022-08-19T04:48:26.763Z,94.40
2022-08-19T04:49:23.408Z,94.50
2022-08-19T04:50:27.135Z,94.50
2022-08-19T04:51:32.336Z,94.70
2022-08-19T04:52:34.491Z,94.80
2022-08-19T04:53:38.479Z,95.00
2022-08-19T04:54:41.665Z,95.00
2022-08-19T04:55:44.081Z,94.80
2022-08-19T04:56:45.934Z,94.70
2022-08-19T04:57:48.082Z,94.70
2022-08-19T04:58:52.454Z,94.80
2022-08-19T04:59:57.546Z,94.80
2022-08-19T05:01:01.102Z,94.90
2022-08-19T05:02:03.850Z,95.00
2022-08-19T05:03:07.604Z,94.90
2022-08-19T05:04:10.216Z,94.90
2022-08-19T05:05:12.392Z,94.90
2022-08-19T05:06:15.908Z,95.40
2022-08-19T05:07:17.913Z,94.90
2022-08-19T05:08:30.946Z,94.80
2022-08-19T05:09:55.373Z,94.80
2022-08-19T05:10:58.316Z,94.80
2022-08-19T05:12:01.464Z,94.70
2022-08-19T05:13:04.138Z,94.70
2022-08-19T05:14:07.599Z,94.60
2022-08-19T05:15:10.089Z,94.70
2022-08-19T05:16:13.630Z,94.70
2022-08-19T05:17:37.502Z,94.70
2022-08-19T05:18:56.952Z,94.70
2022-08-19T05:20:17.394Z,94.70
2022-08-19T05:21:39.735Z,94.70
2022-08-19T05:22:43.803Z,94.70
2022-08-19T05:23:45.681Z,94.80
2022-08-19T05:25:11.233Z,94.90
2022-08-19T05:26:12.013Z,94.90
2022-08-19T05:27:14.369Z,94.90
2022-08-19T05:28:16.178Z,94.80
2022-08-19T05:29:20.970Z,94.80
2022-08-19T05:30:30.207Z,94.80
2022-08-19T05:31:46.057Z,94.70
2022-08-19T05:32:47.979Z,94.70
2022-08-19T05:33:51.017Z,94.70
2022-08-19T05:34:52.927Z,94.70
2022-08-19T05:35:55.258Z,94.70
2022-08-19T05:36:59.690Z,94.70
2022-08-19T05:38:01.543Z,94.70
2022-08-19T05:39:05.580Z,94.80
2022-08-19T05:40:08.431Z,94.90
2022-08-19T05:41:11.969Z,95.00
2022-08-19T05:42:14.016Z,95.00
2022-08-19T05:43:19.096Z,95.00
2022-08-19T05:44:23.106Z,95.10
2022-08-19T05:45:25.670Z,95.00
2022-08-19T05:46:27.789Z,95.00
2022-08-19T05:47:31.457Z,95.00
2022-08-19T05:48:35.291Z,95.00
2022-08-19T05:49:38.149Z,95.40
2022-08-19T05:50:42.580Z,95.00
2022-08-19T05:51:44.477Z,95.00
2022-08-19T05:52:54.454Z,95.10
2022-08-19T05:53:56.429Z,95.10
2022-08-19T05:54:58.239Z,95.30
2022-08-19T05:56:16.928Z,95.40
2022-08-19T05:57:21.137Z,95.50
2022-08-19T05:58:23.257Z,95.50
2022-08-19T05:59:29.869Z,95.50
2022-08-19T06:00:33.471Z,95.50
2022-08-19T06:01:36.231Z,95.50
2022-08-19T06:02:38.277Z,95.50
2022-08-19T06:03:40.697Z,95.60
2022-08-19T06:04:43.893Z,95.50
2022-08-19T06:05:51.565Z,95.60
2022-08-19T06:06:54.797Z,95.50
2022-08-19T06:07:57.674Z,95.60
2022-08-19T06:08:59.882Z,95.50
2022-08-19T06:10:01.755Z,95.50
2022-08-19T06:11:23.489Z,95.50
2022-08-19T06:12:29.598Z,95.30
2022-08-19T06:13:33.357Z,95.50
2022-08-19T06:14:40.423Z,95.50
2022-08-19T06:15:45.249Z,95.50
2022-08-19T06:16:47.649Z,95.60
2022-08-19T06:17:50.094Z,95.60
2022-08-19T06:18:53.481Z,95.60
2022-08-19T06:19:55.232Z,95.60
2022-08-19T06:20:57.177Z,95.70
2022-08-19T06:22:00.319Z,95.70
2022-08-19T06:23:02.711Z,95.70
2022-08-19T06:24:07.192Z,95.80
2022-08-19T06:25:12.687Z,95.90
2022-08-19T06:26:16.187Z,96.00
2022-08-19T06:27:17.992Z,96.20
2022-08-19T06:28:19.978Z,96.20
2022-08-19T06:29:24.873Z,96.20
2022-08-19T06:30:27.085Z,96.10
2022-08-19T06:31:32.266Z,96.10
2022-08-19T06:32:34.094Z,96.20
2022-08-19T06:33:37.706Z,96.30
2022-08-19T06:34:40.617Z,96.30
2022-08-19T06:36:50.628Z,96.20
2022-08-19T06:37:55.494Z,96.30
2022-08-19T06:39:21.099Z,96.20
2022-08-19T06:40:23.020Z,96.10
2022-08-19T06:41:29.353Z,96.10
2022-08-19T06:42:31.446Z,96.20
2022-08-19T06:43:33.296Z,96.10
2022-08-19T06:44:43.293Z,96.00
2022-08-19T06:45:45.750Z,96.10
2022-08-19T06:46:54.714Z,96.10
2022-08-19T06:47:57.202Z,96.00
2022-08-19T06:48:59.547Z,96.10
2022-08-19T06:50:03.906Z,96.00
2022-08-19T06:51:08.846Z,96.00
2022-08-19T06:52:16.091Z,96.00
2022-08-19T06:53:20.264Z,96.00
2022-08-19T06:54:24.111Z,96.50
2022-08-19T06:55:33.386Z,96.00
2022-08-19T06:56:36.361Z,96.00
2022-08-19T06:57:38.170Z,96.00
2022-08-19T06:58:40.001Z,96.10
2022-08-19T06:59:41.917Z,96.10
2022-08-19T07:00:43.786Z,96.20
2022-08-19T07:01:50.772Z,96.10
2022-08-19T07:02:59.069Z,96.00
2022-08-19T07:04:03.340Z,95.90
2022-08-19T07:05:06.823Z,96.20
2022-08-19T07:06:21.505Z,96.10
2022-08-19T07:07:35.738Z,96.10
2022-08-19T07:08:41.976Z,96.10
2022-08-19T07:09:46.036Z,96.20
2022-08-19T07:10:58.987Z,96.20
2022-08-19T07:12:01.404Z,96.30
2022-08-19T07:13:09.065Z,96.20
2022-08-19T07:14:18.904Z,96.30
2022-08-19T07:15:22.400Z,96.20
2022-08-19T07:16:29.209Z,96.00
2022-08-19T07:17:34.669Z,95.90
2022-08-19T07:18:38.998Z,95.80
2022-08-19T07:19:45.686Z,95.80
2022-08-19T07:20:49.209Z,95.80
2022-08-19T07:21:53.991Z,95.80
2022-08-19T07:22:56.462Z,95.60
2022-08-19T07:24:02.918Z,95.50
2022-08-19T07:25:09.687Z,95.50
2022-08-19T07:26:27.903Z,95.40
2022-08-19T07:27:30.107Z,95.60
2022-08-19T07:28:36.879Z,95.50
2022-08-19T07:29:39.098Z,95.50
2022-08-19T07:30:41.805Z,95.40
2022-08-19T07:31:45.833Z,95.30
2022-08-19T07:32:47.639Z,95.20
2022-08-19T07:33:55.837Z,95.10
2022-08-19T07:34:57.915Z,94.80
2022-08-19T07:36:00.019Z,94.60
2022-08-19T07:37:01.850Z,94.60
2022-08-19T07:38:04.117Z,94.50
2022-08-19T07:39:10.159Z,94.40
2022-08-19T07:40:13.336Z,94.40
2022-08-19T07:41:20.294Z,94.20
2022-08-19T07:42:22.219Z,94.10
2022-08-19T07:43:26.097Z,94.10
2022-08-19T07:45:41.004Z,94.30
2022-08-19T07:46:48.139Z,94.40
2022-08-19T07:47:53.289Z,94.50
2022-08-19T07:48:55.114Z,94.30
2022-08-19T07:49:57.558Z,94.30
2022-08-19T07:51:03.179Z,94.40
2022-08-19T07:52:08.151Z,94.30
2022-08-19T07:53:10.011Z,94.40
2022-08-19T07:54:12.991Z,94.40
2022-08-19T07:55:41.740Z,94.20
2022-08-19T07:56:36.851Z,94.20
2022-08-19T07:57:40.501Z,94.30
2022-08-19T07:58:45.051Z,94.10
2022-08-19T07:59:47.074Z,93.80
2022-08-19T08:00:51.384Z,93.50
2022-08-19T08:01:53.776Z,93.40
2022-08-19T08:02:56.206Z,93.40
2022-08-19T08:04:17.504Z,93.20
2022-08-19T08:05:40.671Z,93.10
2022-08-19T08:07:03.721Z,93.10
2022-08-19T08:08:48.037Z,93.10
2022-08-19T08:09:50.979Z,93.10
2022-08-19T08:10:54.720Z,93.30
2022-08-19T08:12:33.215Z,93.10
2022-08-19T08:13:39.113Z,92.70
2022-08-19T08:14:44.013Z,92.50
2022-08-19T08:15:46.177Z,92.40
2022-08-19T08:16:48.140Z,92.20
2022-08-19T08:17:51.806Z,91.90
2022-08-19T08:18:53.702Z,91.60
2022-08-19T08:19:56.871Z,91.30
2022-08-19T08:20:59.120Z,91.50
2022-08-19T08:22:02.279Z,91.70
2022-08-19T08:23:22.722Z,91.80
2022-08-19T08:24:28.306Z,91.90
2022-08-19T08:25:32.344Z,92.00
2022-08-19T08:26:36.283Z,91.90
2022-08-19T08:27:43.704Z,91.80
2022-08-19T08:28:49.601Z,91.80
2022-08-19T08:29:51.893Z,91.80
2022-08-19T08:30:55.596Z,91.90
2022-08-19T08:32:00.042Z,91.70
2022-08-19T08:33:02.638Z,91.40
2022-08-19T08:34:06.323Z,91.20
2022-08-19T08:35:11.079Z,90.90
2022-08-19T08:36:16.834Z,90.90
2022-08-19T08:37:20.446Z,90.70
2022-08-19T08:38:22.598Z,90.60
2022-08-19T08:39:24.681Z,90.70
2022-08-19T08:40:51.076Z,90.90
2022-08-19T08:42:17.729Z,90.60
2022-08-19T08:43:36.634Z,90.80
2022-08-19T08:46:12.943Z,89.60
2022-08-19T08:47:21.296Z,89.20
2022-08-19T08:48:35.588Z,88.60
2022-08-19T08:49:52.296Z,88.40
2022-08-19T08:50:57.452Z,88.50
2022-08-19T08:52:12.225Z,87.40
2022-08-19T08:53:17.307Z,87.80
2022-08-19T08:54:48.827Z,88.10
2022-08-19T08:55:57.251Z,87.50
2022-08-19T08:57:00.417Z,87.80
2022-08-19T08:58:07.521Z,88.30
2022-08-19T08:59:14.007Z,88.50
2022-08-19T09:00:22.308Z,88.50
2022-08-19T09:01:24.836Z,86.90
2022-08-19T09:02:32.885Z,87.80
2022-08-19T09:03:37.617Z,88.50
2022-08-19T09:04:40.262Z,87.60
2022-08-19T09:05:57.984Z,87.40
2022-08-19T09:07:26.237Z,86.60
2022-08-19T09:08:59.137Z,82.90
2022-08-19T09:10:11.642Z,81.60
2022-08-19T09:11:42.667Z,80.50
2022-08-19T09:13:19.756Z,79.10
2022-08-19T09:14:49.753Z,80.90
2022-08-19T09:16:05.463Z,79.10
2022-08-19T09:17:09.238Z,76.60
2022-08-19T09:18:19.075Z,76.40
2022-08-19T09:19:22.469Z,74.00
2022-08-19T09:20:26.742Z,74.30
2022-08-19T09:21:33.448Z,74.70
2022-08-19T09:22:45.110Z,75.00
2022-08-19T09:23:47.879Z,76.50
2022-08-19T09:24:53.481Z,75.10
2022-08-19T09:25:55.516Z,76.90
2022-08-19T09:26:58.575Z,78.10
2022-08-19T09:28:22.423Z,76.30
2022-08-19T09:29:27.517Z,75.70
2022-08-19T09:30:40.529Z,75.40
2022-08-19T09:31:43.742Z,74.50
2022-08-19T09:32:46.625Z,74.30
2022-08-19T09:33:52.291Z,74.20
2022-08-19T09:34:59.389Z,74.30
2022-08-19T09:36:09.647Z,74.20
2022-08-19T09:37:16.885Z,73.00
2022-08-19T09:38:18.987Z,73.20
2022-08-19T09:39:20.992Z,74.20
2022-08-19T09:40:22.885Z,74.70
2022-08-19T09:41:30.686Z,74.50
2022-08-19T09:42:35.226Z,74.40
2022-08-19T09:43:44.587Z,75.60
2022-08-19T09:44:50.051Z,75.50
2022-08-19T09:45:53.692Z,77.70
2022-08-19T09:46:55.596Z,76.80
2022-08-19T09:47:58.547Z,77.10
2022-08-19T09:49:02.976Z,77.70
2022-08-19T09:50:12.544Z,78.20
2022-08-19T09:51:24.859Z,77.40
2022-08-19T09:52:32.468Z,77.80
2022-08-19T09:53:39.245Z,78.50
2022-08-19T09:54:44.185Z,79.20
2022-08-19T09:55:47.441Z,79.50
2022-08-19T09:56:49.501Z,79.40
2022-08-19T09:57:54.482Z,78.30
2022-08-19T09:58:58.765Z,78.20
2022-08-19T10:00:01.239Z,80.30
2022-08-19T10:01:10.841Z,79.60
2022-08-19T10:02:13.102Z,80.60
2022-08-19T10:03:15.121Z,80.30
2022-08-19T10:04:20.617Z,81.70
2022-08-19T10:05:43.108Z,81.80
2022-08-19T10:06:51.842Z,80.60
2022-08-19T10:07:56.896Z,80.90
2022-08-19T10:08:59.303Z,80.00
2022-08-19T10:10:01.550Z,76.40
2022-08-19T10:11:28.621Z,74.10
2022-08-19T10:12:29.612Z,73.90
2022-08-19T10:13:34.474Z,73.90
2022-08-19T10:14:37.762Z,72.80
2022-08-19T10:15:47.500Z,74.10
2022-08-19T10:16:52.065Z,74.50
2022-08-19T10:17:55.587Z,74.90
2022-08-19T10:18:59.862Z,72.50
2022-08-19T10:20:08.577Z,70.90
2022-08-19T10:21:15.848Z,68.80
2022-08-19T10:22:23.261Z,67.00
2022-08-19T10:23:30.658Z,67.40
2022-08-19T10:24:37.009Z,65.50
2022-08-19T10:25:39.555Z,66.30
2022-08-19T10:26:48.799Z,67.30
2022-08-19T10:27:59.170Z,66.30
2022-08-19T10:29:01.267Z,66.40
2022-08-19T10:30:10.010Z,66.90
2022-08-19T10:31:20.754Z,67.60
2022-08-19T10:32:46.459Z,67.50
2022-08-19T10:33:53.142Z,68.90
2022-08-19T10:34:58.125Z,69.80
2022-08-19T10:36:04.336Z,70.80
2022-08-19T10:37:10.714Z,72.00
2022-08-19T10:38:12.814Z,73.90
2022-08-19T10:39:17.432Z,74.00
2022-08-19T10:40:28.467Z,72.90
2022-08-19T10:41:34.443Z,71.10
2022-08-19T10:42:37.179Z,68.80
2022-08-19T10:43:41.280Z,67.60
2022-08-19T10:44:44.299Z,65.10
2022-08-19T10:45:58.624Z,62.10
2022-08-19T10:47:01.570Z,59.40
2022-08-19T10:48:05.375Z,59.20
2022-08-19T10:49:07.588Z,58.60
2022-08-19T10:50:28.528Z,58.70
2022-08-19T10:51:51.374Z,58.00
2022-08-19T10:52:53.236Z,60.00
2022-08-19T10:54:02.402Z,62.40
2022-08-19T10:55:29.262Z,63.50
2022-08-19T10:56:53.180Z,63.10
2022-08-19T10:58:03.377Z,62.40
2022-08-19T10:59:05.859Z,61.50
2022-08-19T11:00:08.348Z,62.20
2022-08-19T11:01:13.255Z,61.30
2022-08-19T11:02:15.309Z,60.10
2022-08-19T11:03:17.339Z,59.10
2022-08-19T11:04:20.788Z,57.80
2022-08-19T11:05:24.286Z,57.90
2022-08-19T11:06:28.117Z,58.30
2022-08-19T11:07:30.417Z,57.80
2022-08-19T11:08:33.613Z,57.60
2022-08-19T11:09:42.192Z,56.80
2022-08-19T11:10:47.408Z,56.30
2022-08-19T11:11:55.871Z,56.30
2022-08-19T11:12:58.372Z,58.40
2022-08-19T11:14:01.118Z,58.80
2022-08-19T11:15:03.122Z,59.60
2022-08-19T11:16:20.759Z,59.80
2022-08-19T11:17:24.571Z,58.80
2022-08-19T11:18:31.819Z,57.60
2022-08-19T11:19:34.790Z,56.40
2022-08-19T11:20:38.474Z,54.40
2022-08-19T11:21:45.321Z,54.30
2022-08-19T11:22:50.977Z,52.20
2022-08-19T11:24:02.101Z,51.70
2022-08-19T11:25:07.168Z,49.60
2022-08-19T11:26:09.259Z,48.40
2022-08-19T11:27:12.655Z,48.60
2022-08-19T11:28:15.420Z,49.00
2022-08-19T11:29:20.888Z,49.90
2022-08-19T11:30:22.788Z,49.10
2022-08-19T11:31:30.761Z,47.90
2022-08-19T11:32:33.391Z,48.20
2022-08-19T11:33:35.454Z,48.80
2022-08-19T11:34:37.733Z,50.60
2022-08-19T11:35:43.741Z,49.40
2022-08-19T11:36:48.613Z,48.40
2022-08-19T11:37:52.004Z,47.70
2022-08-19T11:38:56.529Z,48.40
2022-08-19T11:39:59.306Z,49.80
2022-08-19T11:41:03.246Z,48.40
2022-08-19T11:42:27.583Z,49.50
2022-08-19T11:43:31.575Z,50.30
2022-08-19T11:44:36.954Z,48.40
2022-08-19T11:45:38.974Z,48.20
2022-08-19T11:46:42.350Z,49.00
2022-08-19T11:47:45.103Z,48.80
2022-08-19T11:48:47.183Z,49.30
2022-08-19T11:49:49.129Z,49.90
2022-08-19T11:50:52.444Z,51.00
2022-08-19T11:51:54.488Z,53.30
2022-08-19T11:52:58.669Z,52.90
2022-08-19T11:54:01.643Z,53.60
2022-08-19T11:55:03.711Z,54.40
2022-08-19T11:56:06.777Z,55.30
2022-08-19T11:57:08.729Z,55.90
2022-08-19T11:58:18.946Z,56.20
2022-08-19T11:59:21.175Z,56.70
2022-08-19T12:00:22.985Z,57.10
2022-08-19T12:01:26.557Z,57.80
2022-08-19T12:02:28.364Z,59.50
2022-08-19T12:03:30.182Z,59.40
2022-08-19T12:04:31.981Z,60.20
2022-08-19T12:05:33.839Z,59.30
2022-08-19T12:06:41.254Z,59.50
2022-08-19T12:07:43.635Z,59.70
2022-08-19T12:08:46.325Z,59.50
2022-08-19T12:09:48.727Z,60.20
2022-08-19T12:10:50.647Z,60.00
2022-08-19T12:11:52.504Z,60.50
2022-08-19T12:12:58.503Z,61.20
2022-08-19T12:14:00.937Z,60.50
2022-08-19T12:15:03.479Z,60.20
2022-08-19T12:16:15.930Z,60.80
2022-08-19T12:17:17.718Z,62.60
2022-08-19T12:18:19.621Z,61.80
2022-08-19T12:19:22.378Z,61.90
2022-08-19T12:20:25.620Z,62.30
2022-08-19T12:21:29.669Z,62.90
2022-08-19T12:22:31.648Z,63.50
2022-08-19T12:23:33.555Z,64.10
2022-08-19T12:24:35.913Z,64.20
2022-08-19T12:25:44.224Z,64.40
2022-08-19T12:26:53.259Z,65.40
2022-08-19T12:27:57.636Z,65.30
2022-08-19T12:29:00.581Z,66.60
2022-08-19T12:30:03.800Z,67.20
2022-08-19T12:31:06.567Z,66.80
2022-08-19T12:32:08.805Z,66.50
2022-08-19T12:33:14.735Z,66.20
2022-08-19T12:34:16.684Z,67.60
2022-08-19T12:35:21.102Z,69.30
2022-08-19T12:36:25.975Z,70.40
2022-08-19T12:37:28.163Z,70.40
2022-08-19T12:38:30.640Z,71.50
2022-08-19T12:39:43.242Z,70.70
2022-08-19T12:40:49.075Z,70.20
2022-08-19T12:41:54.864Z,68.50
2022-08-19T12:42:58.401Z,67.50
2022-08-19T12:44:01.887Z,68.40
2022-08-19T12:45:04.086Z,67.50
2022-08-19T12:46:09.054Z,67.30
2022-08-19T12:47:17.983Z,66.60
2022-08-19T12:48:33.274Z,67.20
2022-08-19T12:49:54.569Z,66.80
2022-08-19T12:50:57.700Z,66.40
2022-08-19T12:51:59.532Z,67.60
2022-08-19T12:53:02.206Z,66.90
2022-08-19T12:54:05.714Z,65.80
2022-08-19T12:55:09.009Z,65.80
2022-08-19T12:56:12.590Z,66.70
2022-08-19T12:57:14.682Z,66.90
2022-08-19T12:58:16.591Z,66.00
2022-08-19T12:59:19.667Z,66.60
2022-08-19T13:00:22.846Z,67.10
2022-08-19T13:01:24.831Z,68.10
2022-08-19T13:02:27.422Z,68.60
2022-08-19T13:03:30.552Z,68.70
2022-08-19T13:04:32.880Z,69.80
2022-08-19T13:05:35.382Z,70.40
2022-08-19T13:06:37.923Z,70.80
2022-08-19T13:07:41.890Z,70.10
2022-08-19T13:08:43.840Z,69.60
2022-08-19T13:09:48.630Z,69.70
2022-08-19T13:10:50.435Z,69.80
2022-08-19T13:11:52.369Z,69.50
2022-08-19T13:12:54.405Z,69.10
2022-08-19T13:13:56.320Z,69.10
2022-08-19T13:14:58.230Z,68.90
2022-08-19T13:16:04.265Z,68.40
2022-08-19T13:17:06.149Z,69.40
2022-08-19T13:18:11.408Z,68.80
2022-08-19T13:19:14.169Z,69.00
2022-08-19T13:20:17.595Z,69.30
2022-08-19T13:21:21.044Z,70.10
2022-08-19T13:22:25.956Z,70.60
2022-08-19T13:23:27.738Z,69.40
2022-08-19T13:24:33.690Z,69.80
2022-08-19T13:25:37.161Z,70.90
2022-08-19T13:26:38.957Z,71.70
2022-08-19T13:27:41.181Z,71.00
2022-08-19T13:29:03.119Z,71.10
2022-08-19T13:30:25.396Z,70.90
2022-08-19T13:31:49.014Z,70.50
2022-08-19T13:33:09.234Z,70.80
2022-08-19T13:34:11.993Z,70.50
2022-08-19T13:35:16.880Z,70.70
2022-08-19T13:36:18.933Z,71.00
2022-08-19T13:37:40.848Z,71.20
2022-08-19T13:38:42.877Z,71.70
2022-08-19T13:39:45.973Z,72.90
2022-08-19T13:40:50.592Z,73.00
2022-08-19T13:41:53.366Z,74.10
2022-08-19T13:42:56.641Z,74.30
2022-08-19T13:43:58.845Z,75.00
2022-08-19T13:45:00.750Z,74.50
2022-08-19T13:46:11.222Z,75.50
2022-08-19T13:47:14.786Z,75.00
2022-08-19T13:48:17.491Z,75.60
2022-08-19T13:49:19.436Z,76.10
2022-08-19T13:50:26.638Z,76.10
2022-08-19T13:51:28.625Z,77.20
2022-08-19T13:52:30.493Z,77.70
2022-08-19T13:53:32.329Z,78.20
2022-08-19T13:54:34.225Z,78.50
2022-08-19T13:55:38.159Z,79.20
2022-08-19T13:56:45.602Z,80.20
2022-08-19T13:57:50.744Z,81.70
2022-08-19T13:58:52.551Z,82.20
2022-08-19T13:59:54.581Z,83.40
2022-08-19T14:00:56.532Z,84.40
2022-08-19T14:02:02.049Z,85.90
2022-08-19T14:03:09.014Z,86.80
2022-08-19T14:04:11.194Z,88.00
2022-08-19T14:05:15.123Z,87.90
2022-08-19T14:06:17.771Z,88.70
2022-08-19T14:07:19.560Z,90.10
2022-08-19T14:08:21.364Z,90.30
2022-08-19T14:09:23.206Z,90.50